createdAt,value
2022-12-27T00:01:31.645Z,102216.47
2022-12-27T00:03:58.356Z,102212.06
2022-12-27T00:06:26.486Z,102211.09
2022-12-27T00:08:53.642Z,102227.28
2022-12-27T00:11:22.919Z,102215.69
2022-12-27T00:13:49.670Z,102222.19
2022-12-27T00:16:20.377Z,102220.16
2022-12-27T00:18:49.269Z,102219.47
2022-12-27T00:21:17.404Z,102225.47
2022-12-27T00:23:46.958Z,102219.34
2022-12-27T00:26:17.177Z,102221.34
2022-12-27T00:28:44.610Z,102231.00
2022-12-27T00:31:11.721Z,102235.47
2022-12-27T00:33:40.692Z,102228.31
2022-12-27T00:36:09.477Z,102231.81
2022-12-27T00:38:36.137Z,102240.75
2022-12-27T00:41:03.892Z,102229.97
2022-12-27T00:43:32.803Z,102228.22
2022-12-27T00:45:59.525Z,102225.00
2022-12-27T00:48:29.032Z,102220.75
2022-12-27T00:51:07.374Z,102230.41
2022-12-27T00:53:35.139Z,102228.78
2022-12-27T00:56:05.831Z,102233.09
2022-12-27T00:58:32.362Z,102227.19
2022-12-27T01:01:10.178Z,102244.97
2022-12-27T01:03:37.554Z,102245.03
2022-12-27T01:06:09.547Z,102257.63
2022-12-27T01:08:39.202Z,102247.13
2022-12-27T01:11:07.059Z,102252.44
2022-12-27T01:13:34.763Z,102254.34
2022-12-27T01:16:01.464Z,102259.66
2022-12-27T01:18:28.491Z,102263.31
2022-12-27T01:20:57.692Z,102252.78
2022-12-27T01:23:27.840Z,102266.13
2022-12-27T01:26:10.286Z,102268.22
2022-12-27T01:28:39.305Z,102263.56
2022-12-27T01:31:12.191Z,102267.41
2022-12-27T01:33:39.304Z,102267.47
2022-12-27T01:36:12.319Z,102281.56
2022-12-27T01:38:39.552Z,102286.03
2022-12-27T01:41:26.035Z,102294.25
2022-12-27T01:43:52.606Z,102289.78
2022-12-27T01:46:19.259Z,102293.16
2022-12-27T01:48:46.567Z,102316.31
2022-12-27T01:51:13.930Z,102307.25
2022-12-27T01:53:44.814Z,102302.94
2022-12-27T01:56:31.943Z,102312.50
2022-12-27T01:59:11.528Z,102293.03
2022-12-27T02:01:42.542Z,102316.25
2022-12-27T02:04:16.367Z,102315.28
2022-12-27T02:06:43.312Z,102313.59
2022-12-27T02:09:22.660Z,102319.53
2022-12-27T02:11:56.941Z,102320.34
2022-12-27T02:14:32.364Z,102321.78
2022-12-27T02:17:01.482Z,102309.84
2022-12-27T02:19:40.237Z,102322.03
2022-12-27T02:22:18.856Z,102319.06
2022-12-27T02:25:10.718Z,102317.09
2022-12-27T02:28:14.722Z,102313.72
2022-12-27T02:30:44.640Z,102316.63
2022-12-27T02:33:19.405Z,102329.13
2022-12-27T02:35:55.517Z,102316.78
2022-12-27T02:38:31.634Z,102332.81
2022-12-27T02:41:20.871Z,102338.16
2022-12-27T02:44:06.259Z,102333.84
2022-12-27T02:46:51.707Z,102339.25
2022-12-27T02:49:55.291Z,102333.97
2022-12-27T02:53:01.865Z,102343.97
2022-12-27T02:55:30.647Z,102344.03
2022-12-27T02:58:21.436Z,102340.38
2022-12-27T03:01:16.873Z,102327.97
2022-12-27T03:04:10.735Z,102342.06
2022-12-27T03:07:19.794Z,102340.19
2022-12-27T03:10:11.041Z,102332.88
2022-12-27T03:13:19.743Z,102340.72
2022-12-27T03:16:01.312Z,102336.94
2022-12-27T03:18:27.917Z,102338.56
2022-12-27T03:21:18.731Z,102347.47
2022-12-27T03:24:09.791Z,102335.50
2022-12-27T03:26:40.131Z,102345.25
2022-12-27T03:29:27.354Z,102344.16
2022-12-27T03:32:16.864Z,102346.97
2022-12-27T03:34:53.146Z,102350.56
2022-12-27T03:37:59.067Z,102354.28
2022-12-27T03:41:11.094Z,102367.72
2022-12-27T03:43:40.000Z,102359.75
2022-12-27T03:46:33.917Z,102354.63
2022-12-27T03:49:09.729Z,102366.16
2022-12-27T03:51:58.146Z,102350.91
2022-12-27T03:54:34.663Z,102352.56
2022-12-27T03:57:05.601Z,102359.69
2022-12-27T03:59:32.548Z,102337.63
2022-12-27T04:01:59.999Z,102349.81
2022-12-27T04:04:26.879Z,102352.44
2022-12-27T04:06:53.739Z,102362.25
2022-12-27T04:09:39.073Z,102353.53
2022-12-27T04:12:24.640Z,102357.03
2022-12-27T04:15:09.877Z,102367.03
2022-12-27T04:17:54.898Z,102363.53
2022-12-27T04:20:40.404Z,102378.72
2022-12-27T04:23:25.871Z,102380.59
2022-12-27T04:26:11.116Z,102387.59
2022-12-27T04:28:58.616Z,102357.25
2022-12-27T04:31:44.111Z,102379.03
2022-12-27T04:34:31.706Z,102375.28
2022-12-27T04:36:58.311Z,102389.16
2022-12-27T04:39:26.997Z,102378.28
2022-12-27T04:42:14.660Z,102386.22
2022-12-27T04:45:00.008Z,102395.38
2022-12-27T04:47:45.242Z,102395.63
2022-12-27T04:50:47.904Z,102392.34
2022-12-27T04:53:39.258Z,102393.19
2022-12-27T04:56:07.375Z,102382.41
2022-12-27T04:58:36.681Z,102382.41
2022-12-27T05:01:23.902Z,102397.59
2022-12-27T05:03:54.739Z,102404.13
2022-12-27T05:06:23.813Z,102401.63
2022-12-27T05:09:08.691Z,102388.56
2022-12-27T05:11:53.815Z,102378.31
2022-12-27T05:14:20.506Z,102389.75
2022-12-27T05:16:49.666Z,102403.31
2022-12-27T05:19:19.291Z,102391.53
2022-12-27T05:22:05.788Z,102401.59
2022-12-27T05:24:53.431Z,102382.16
2022-12-27T05:27:22.543Z,102390.78
2022-12-27T05:29:49.147Z,102387.69
2022-12-27T05:32:15.941Z,102408.00
2022-12-27T05:34:42.495Z,102400.75
2022-12-27T05:37:12.126Z,102413.44
2022-12-27T05:39:38.799Z,102418.84
2022-12-27T05:42:05.616Z,102428.78
2022-12-27T05:44:32.204Z,102433.31
2022-12-27T05:47:01.001Z,102431.66
2022-12-27T05:49:27.619Z,102438.00
2022-12-27T05:51:54.164Z,102448.78
2022-12-27T05:54:20.755Z,102449.75
2022-12-27T05:56:49.746Z,102430.94
2022-12-27T05:59:16.327Z,102433.56
2022-12-27T06:01:43.036Z,102437.13
2022-12-27T06:04:10.567Z,102436.00
2022-12-27T06:06:39.421Z,102427.00
2022-12-27T06:09:11.023Z,102413.84
2022-12-27T06:11:37.636Z,102423.25
2022-12-27T06:14:04.131Z,102418.78
2022-12-27T06:16:30.705Z,102421.34
2022-12-27T06:18:57.249Z,102422.28
2022-12-27T06:21:26.307Z,102427.63
2022-12-27T06:23:52.981Z,102439.31
2022-12-27T06:26:23.246Z,102439.38
2022-12-27T06:28:50.716Z,102448.28
2022-12-27T06:31:19.092Z,102447.41
2022-12-27T06:33:46.701Z,102466.31
2022-12-27T06:36:18.424Z,102466.38
2022-12-27T06:38:45.080Z,102458.59
2022-12-27T06:41:17.416Z,102463.97
2022-12-27T06:43:44.865Z,102464.97
2022-12-27T06:46:17.597Z,102464.97
2022-12-27T06:48:47.673Z,102464.22
2022-12-27T06:51:16.058Z,102471.47
2022-12-27T06:53:42.599Z,102455.47
2022-12-27T06:56:16.785Z,102464.28
2022-12-27T06:58:46.711Z,102467.75
2022-12-27T07:01:19.600Z,102461.47
2022-12-27T07:03:51.243Z,102469.69
2022-12-27T07:06:18.950Z,102477.91
2022-12-27T07:08:46.469Z,102477.09
2022-12-27T07:11:14.573Z,102477.16
2022-12-27T07:13:47.154Z,102476.47
2022-12-27T07:16:15.906Z,102479.19
2022-12-27T07:18:42.847Z,102488.22
2022-12-27T07:21:17.628Z,102484.69
2022-12-27T07:23:45.084Z,102477.03
2022-12-27T07:26:14.433Z,102508.34
2022-12-27T07:28:41.633Z,102511.91
2022-12-27T07:31:23.003Z,102511.22
2022-12-27T07:33:50.284Z,102516.56
2022-12-27T07:36:19.327Z,102505.97
2022-12-27T07:38:46.234Z,102503.25
2022-12-27T07:41:13.709Z,102506.47
2022-12-27T07:43:40.815Z,102513.06
2022-12-27T07:46:12.264Z,102510.38
2022-12-27T07:48:48.628Z,102517.59
2022-12-27T07:51:16.833Z,102514.03
2022-12-27T07:53:44.115Z,102498.88
2022-12-27T07:56:13.788Z,102491.22
2022-12-27T07:58:43.394Z,102515.06
2022-12-27T08:01:11.399Z,102511.59
2022-12-27T08:03:40.624Z,102521.16
2022-12-27T08:06:08.886Z,102520.25
2022-12-27T08:08:40.777Z,102523.84
2022-12-27T08:11:07.470Z,102532.75
2022-12-27T08:13:37.697Z,102536.25
2022-12-27T08:16:04.652Z,102537.16
2022-12-27T08:18:31.252Z,102539.69
2022-12-27T08:21:00.250Z,102544.16
2022-12-27T08:23:29.038Z,102545.16
2022-12-27T08:25:55.567Z,102532.63
2022-12-27T08:28:24.382Z,102527.13
2022-12-27T08:30:50.995Z,102542.03
2022-12-27T08:33:17.587Z,102545.69
2022-12-27T08:35:54.341Z,102543.94
2022-12-27T08:38:21.724Z,102550.88
2022-12-27T08:40:48.276Z,102535.66
2022-12-27T08:43:15.537Z,102539.03
2022-12-27T08:45:42.407Z,102537.03
2022-12-27T08:48:11.735Z,102520.97
2022-12-27T08:50:38.379Z,102538.34
2022-12-27T08:53:06.188Z,102538.28
2022-12-27T08:55:33.549Z,102538.09
2022-12-27T08:58:09.219Z,102531.75
2022-12-27T09:00:42.706Z,102526.22
2022-12-27T09:03:09.690Z,102527.97
2022-12-27T09:05:41.396Z,102521.44
2022-12-27T09:08:08.785Z,102527.47
2022-12-27T09:10:35.297Z,102507.75
2022-12-27T09:13:01.997Z,102516.41
2022-12-27T09:15:31.218Z,102528.00
2022-12-27T09:18:00.202Z,102538.63
2022-12-27T09:20:26.930Z,102539.44
2022-12-27T09:22:55.940Z,102545.63
2022-12-27T09:25:22.571Z,102540.03
2022-12-27T09:27:49.183Z,102529.59
2022-12-27T09:30:15.784Z,102548.84
2022-12-27T09:32:44.646Z,102523.75
2022-12-27T09:35:11.165Z,102546.75
2022-12-27T09:37:37.752Z,102547.63
2022-12-27T09:40:04.797Z,102554.50
2022-12-27T09:43:07.544Z,102556.00
2022-12-27T09:45:52.063Z,102563.47
2022-12-27T09:48:24.215Z,102566.72
2022-12-27T09:51:04.051Z,102561.09
2022-12-27T09:53:43.267Z,102566.97
2022-12-27T09:56:16.114Z,102541.63
2022-12-27T09:58:55.255Z,102556.63
2022-12-27T10:01:37.109Z,102527.31
2022-12-27T10:04:05.172Z,102548.81
2022-12-27T10:06:53.444Z,102545.91
2022-12-27T10:09:41.476Z,102550.16
2022-12-27T10:12:20.558Z,102543.72
2022-12-27T10:15:09.101Z,102560.25
2022-12-27T10:18:09.047Z,102562.59
2022-12-27T10:20:44.517Z,102560.38
2022-12-27T10:23:15.951Z,102564.63
2022-12-27T10:25:46.465Z,102563.38
2022-12-27T10:28:28.332Z,102553.41
2022-12-27T10:31:02.860Z,102557.44
2022-12-27T10:33:32.317Z,102571.25
2022-12-27T10:35:59.105Z,102563.47
2022-12-27T10:38:33.654Z,102559.97
2022-12-27T10:41:25.707Z,102555.00
2022-12-27T10:43:54.041Z,102554.38
2022-12-27T10:46:32.456Z,102555.16
2022-12-27T10:51:52.916Z,102556.66
2022-12-27T10:54:26.538Z,102567.88
2022-12-27T10:56:54.211Z,102573.13
2022-12-27T10:59:22.523Z,102572.97
2022-12-27T11:02:12.747Z,102558.63
2022-12-27T11:04:57.297Z,102552.81
2022-12-27T11:07:31.668Z,102563.66
2022-12-27T11:10:18.074Z,102554.09
2022-12-27T11:13:05.034Z,102553.63
2022-12-27T11:15:37.078Z,102546.78
2022-12-27T11:18:31.922Z,102545.19
2022-12-27T11:20:59.425Z,102538.34
2022-12-27T11:23:37.029Z,102545.03
2022-12-27T11:26:06.669Z,102541.84
2022-12-27T11:28:43.564Z,102539.13
2022-12-27T11:31:12.864Z,102540.09
2022-12-27T11:33:42.516Z,102533.72
2022-12-27T11:36:11.033Z,102542.31
2022-12-27T11:38:40.207Z,102539.28
2022-12-27T11:41:14.238Z,102531.41
2022-12-27T11:44:20.719Z,102526.84
2022-12-27T11:46:59.263Z,102528.84
2022-12-27T11:49:36.097Z,102520.16
2022-12-27T11:52:33.823Z,102502.28
2022-12-27T11:55:28.671Z,102510.44
2022-12-27T11:58:17.086Z,102514.13
2022-12-27T12:01:14.358Z,102507.00
2022-12-27T12:04:18.964Z,102495.31
2022-12-27T12:06:55.900Z,102500.56
2022-12-27T12:09:42.782Z,102498.41
2022-12-27T12:12:31.233Z,102500.72
2022-12-27T12:15:13.395Z,102500.84
2022-12-27T12:18:02.828Z,102489.06
2022-12-27T12:21:00.256Z,102502.22
2022-12-27T12:23:48.482Z,102488.84
2022-12-27T12:26:30.813Z,102495.75
2022-12-27T12:29:15.654Z,102494.63
2022-12-27T12:31:52.475Z,102492.94
2022-12-27T12:34:25.162Z,102492.78
2022-12-27T12:37:03.116Z,102480.66
2022-12-27T12:39:29.577Z,102480.06
2022-12-27T12:42:02.926Z,102451.06
2022-12-27T12:44:56.236Z,102459.34
2022-12-27T12:48:08.962Z,102461.34
2022-12-27T12:50:52.495Z,102453.91
2022-12-27T12:53:30.605Z,102452.34
2022-12-27T12:56:14.001Z,102446.69
2022-12-27T12:59:13.054Z,102451.94
2022-12-27T13:02:13.520Z,102432.63
2022-12-27T13:04:52.350Z,102429.91
2022-12-27T13:07:41.061Z,102430.84
2022-12-27T13:10:16.754Z,102422.38
2022-12-27T13:12:53.062Z,102421.25
2022-12-27T13:15:38.192Z,102394.31
2022-12-27T13:18:36.272Z,102397.22
2022-12-27T13:21:14.033Z,102393.22
2022-12-27T13:23:46.728Z,102391.00
2022-12-27T13:26:33.480Z,102393.81
2022-12-27T13:29:18.625Z,102390.16
2022-12-27T13:31:57.934Z,102386.25
2022-12-27T13:34:40.607Z,102375.88
2022-12-27T13:37:30.558Z,102359.69
2022-12-27T13:40:47.980Z,102367.28
2022-12-27T13:43:14.498Z,102370.81
2022-12-27T13:46:13.613Z,102361.22
2022-12-27T13:48:46.246Z,102359.53
2022-12-27T13:51:42.054Z,102347.50
2022-12-27T13:54:20.529Z,102367.22
2022-12-27T13:56:55.438Z,102369.16
2022-12-27T13:59:34.734Z,102365.75
2022-12-27T14:02:34.876Z,102350.50
2022-12-27T14:05:01.537Z,102352.47
2022-12-27T14:07:33.731Z,102354.47
2022-12-27T14:10:31.393Z,102344.59
2022-12-27T14:12:59.549Z,102349.25
2022-12-27T14:15:29.087Z,102344.69
2022-12-27T14:18:39.480Z,102339.34
2022-12-27T14:21:23.864Z,102341.28
2022-12-27T14:24:25.934Z,102341.38
2022-12-27T14:27:07.517Z,102333.03
2022-12-27T14:30:02.245Z,102338.88
2022-12-27T14:33:06.367Z,102326.44
2022-12-27T14:35:53.947Z,102332.94
2022-12-27T14:38:45.406Z,102323.91
2022-12-27T14:41:49.841Z,102322.84
2022-12-27T14:44:43.731Z,102311.22
2022-12-27T14:47:35.317Z,102321.28
2022-12-27T14:50:24.823Z,102322.47
2022-12-27T14:53:33.058Z,102314.59
2022-12-27T14:56:27.616Z,102316.72
2022-12-27T14:59:13.457Z,102303.69
2022-12-27T15:02:24.298Z,102305.06
2022-12-27T15:05:06.454Z,102298.91
2022-12-27T15:07:51.193Z,102305.06
2022-12-27T15:10:26.068Z,102300.78
2022-12-27T15:13:25.307Z,102303.50
2022-12-27T15:16:17.692Z,102299.91
2022-12-27T15:18:50.776Z,102309.00
2022-12-27T15:21:42.143Z,102301.19
2022-12-27T15:24:27.562Z,102298.16
2022-12-27T15:27:06.569Z,102301.81
2022-12-27T15:29:49.688Z,102302.03
2022-12-27T15:32:53.274Z,102307.66
2022-12-27T15:35:57.628Z,102299.03
2022-12-27T15:38:27.211Z,102294.38
2022-12-27T15:41:09.438Z,102280.59
2022-12-27T15:44:13.205Z,102287.94
2022-12-27T15:46:58.455Z,102289.38
2022-12-27T15:50:02.923Z,102296.25
2022-12-27T15:52:59.491Z,102285.06
2022-12-27T15:55:35.258Z,102293.56
2022-12-27T15:58:12.096Z,102291.97
2022-12-27T16:00:39.456Z,102286.81
2022-12-27T16:03:39.245Z,102273.41
2022-12-27T16:06:09.553Z,102270.38
2022-12-27T16:08:36.478Z,102273.19
2022-12-27T16:11:05.906Z,102241.53
2022-12-27T16:13:37.670Z,102275.88
2022-12-27T16:16:28.697Z,102271.44
2022-12-27T16:19:19.876Z,102274.16
2022-12-27T16:21:46.910Z,102269.88
2022-12-27T16:24:20.913Z,102264.63
2022-12-27T16:27:07.829Z,102260.94
2022-12-27T16:29:43.586Z,102257.66
2022-12-27T16:32:23.676Z,102255.88
2022-12-27T16:34:55.953Z,102262.34
2022-12-27T16:37:28.415Z,102263.41
2022-12-27T16:40:10.162Z,102251.16
2022-12-27T16:42:58.112Z,102263.59
2022-12-27T16:45:39.959Z,102250.91
2022-12-27T16:48:24.309Z,102266.31
2022-12-27T16:51:17.371Z,102260.13
2022-12-27T16:54:04.573Z,102270.16
2022-12-27T16:56:38.971Z,102252.50
2022-12-27T16:59:44.295Z,102265.53
2022-12-27T17:02:40.416Z,102261.09
2022-12-27T17:05:16.362Z,102256.31
2022-12-27T17:07:44.712Z,102258.16
2022-12-27T17:10:38.481Z,102256.31
2022-12-27T17:13:34.276Z,102246.53
2022-12-27T17:16:26.099Z,102237.59
2022-12-27T17:19:03.714Z,102236.13
2022-12-27T17:21:34.155Z,102225.81
2022-12-27T17:24:09.107Z,102233.16
2022-12-27T17:27:04.088Z,102220.16
2022-12-27T17:29:55.134Z,102221.09
2022-12-27T17:32:43.076Z,102221.47
2022-12-27T17:35:43.795Z,102212.63
2022-12-27T17:38:22.304Z,102206.53
2022-12-27T17:41:04.173Z,102214.81
2022-12-27T17:44:17.600Z,102212.19
2022-12-27T17:46:51.450Z,102212.38
2022-12-27T17:49:24.800Z,102206.28
2022-12-27T17:52:09.998Z,102208.28
2022-12-27T17:54:55.735Z,102199.63
2022-12-27T17:57:41.388Z,102208.63
2022-12-27T18:00:23.440Z,102200.75
2022-12-27T18:02:51.291Z,102191.84
2022-12-27T18:05:21.049Z,102197.09
2022-12-27T18:07:53.578Z,102199.91
2022-12-27T18:10:26.136Z,102193.63
2022-12-27T18:12:55.162Z,102174.53
2022-12-27T18:15:29.281Z,102196.31
2022-12-27T18:17:59.563Z,102181.97
2022-12-27T18:20:26.225Z,102190.00
2022-12-27T18:23:06.752Z,102167.47
2022-12-27T18:25:49.138Z,102164.69
2022-12-27T18:28:19.024Z,102167.31
2022-12-27T18:30:55.656Z,102152.25
2022-12-27T18:33:49.515Z,102150.09
2022-12-27T18:36:27.917Z,102151.91
2022-12-27T18:39:01.129Z,102143.94
2022-12-27T18:41:36.427Z,102141.06
2022-12-27T18:44:03.778Z,102150.88
2022-12-27T18:46:37.237Z,102140.22
2022-12-27T18:49:04.584Z,102140.38
2022-12-27T18:51:37.223Z,102143.88
2022-12-27T18:54:30.398Z,102134.28
2022-12-27T18:56:59.467Z,102135.13
2022-12-27T18:59:28.892Z,102105.22
2022-12-27T19:02:21.468Z,102116.25
2022-12-27T19:05:13.651Z,102121.84
2022-12-27T19:07:40.513Z,102121.00
2022-12-27T19:10:18.011Z,102107.59
2022-12-27T19:12:46.308Z,102102.34
2022-12-27T19:15:24.889Z,102103.22
2022-12-27T19:17:55.250Z,102099.81
2022-12-27T19:20:36.767Z,102106.13
2022-12-27T19:23:49.160Z,102102.88
2022-12-27T19:26:15.762Z,102101.91
2022-12-27T19:28:55.432Z,102090.31
2022-12-27T19:31:22.501Z,102094.03
2022-12-27T19:33:55.450Z,102089.97
2022-12-27T19:36:30.875Z,102096.16
2022-12-27T19:38:58.564Z,102086.44
2022-12-27T19:41:26.232Z,102090.22
2022-12-27T19:43:53.598Z,102081.31
2022-12-27T19:46:27.088Z,102075.19
2022-12-27T19:51:43.674Z,102057.06
2022-12-27T19:54:20.765Z,102065.84
2022-12-27T19:56:47.716Z,102064.09
2022-12-27T19:59:20.226Z,102034.88
2022-12-27T20:01:46.882Z,102051.72
2022-12-27T20:04:15.120Z,102039.31
2022-12-27T20:06:45.478Z,102033.63
2022-12-27T20:09:17.556Z,102039.13
2022-12-27T20:11:44.898Z,102029.47
2022-12-27T20:14:13.183Z,102025.59
2022-12-27T20:16:42.823Z,102007.97
2022-12-27T20:19:13.317Z,102015.63
2022-12-27T20:21:40.646Z,102018.53
2022-12-27T20:24:10.064Z,102014.00
2022-12-27T20:26:38.938Z,102006.03
2022-12-27T20:29:07.725Z,102005.88
2022-12-27T20:31:42.237Z,102007.50
2022-12-27T20:34:11.338Z,102003.00
2022-12-27T20:36:38.115Z,102001.16
2022-12-27T20:39:07.015Z,101989.38
2022-12-27T20:41:33.608Z,101991.34
2022-12-27T20:44:02.966Z,101982.63
2022-12-27T20:46:29.910Z,101973.56
2022-12-27T20:48:56.743Z,101987.44
2022-12-27T20:51:27.224Z,101987.53
2022-12-27T20:53:55.908Z,101988.28
2022-12-27T20:56:25.334Z,101979.31
2022-12-27T20:58:52.642Z,101971.00
2022-12-27T21:01:23.965Z,101965.59
2022-12-27T21:03:50.753Z,101967.94
2022-12-27T21:06:20.881Z,101968.81
2022-12-27T21:08:56.703Z,101950.97
2022-12-27T21:11:30.344Z,101960.59
2022-12-27T21:13:59.998Z,101962.03
2022-12-27T21:16:29.299Z,101963.81
2022-12-27T21:19:03.311Z,101960.03
2022-12-27T21:21:31.090Z,101953.56
2022-12-27T21:23:58.654Z,101929.06
2022-12-27T21:26:31.178Z,101951.94
2022-12-27T21:29:01.611Z,101947.00
2022-12-27T21:31:29.188Z,101936.94
2022-12-27T21:33:56.215Z,101938.63
2022-12-27T21:36:25.069Z,101938.38
2022-12-27T21:38:52.877Z,101925.59
2022-12-27T21:41:23.713Z,101924.69
2022-12-27T21:43:53.786Z,101910.56
2022-12-27T21:46:26.955Z,101908.34
2022-12-27T21:48:58.481Z,101907.28
2022-12-27T21:51:29.062Z,101894.81
2022-12-27T21:54:00.469Z,101906.44
2022-12-27T21:56:27.835Z,101903.53
2022-12-27T21:58:59.880Z,101901.41
2022-12-27T22:01:50.714Z,101892.28
2022-12-27T22:04:19.279Z,101877.78
2022-12-27T22:06:47.323Z,101878.16
2022-12-27T22:09:14.348Z,101876.94
2022-12-27T22:11:40.955Z,101871.50
2022-12-27T22:14:07.610Z,101872.00
2022-12-27T22:16:38.929Z,101868.28
2022-12-27T22:19:10.750Z,101856.88
2022-12-27T22:21:39.119Z,101845.66
2022-12-27T22:24:06.687Z,101844.78
2022-12-27T22:26:37.457Z,101847.41
2022-12-27T22:29:05.483Z,101841.19
2022-12-27T22:31:35.403Z,101847.22
2022-12-27T22:34:03.964Z,101830.34
2022-12-27T22:36:31.106Z,101824.94
2022-12-27T22:38:59.148Z,101829.97
2022-12-27T22:41:33.305Z,101825.53
2022-12-27T22:44:05.661Z,101817.97
2022-12-27T22:46:58.710Z,101818.75
2022-12-27T22:49:19.216Z,101815.06
2022-12-27T22:51:45.810Z,101800.53
2022-12-27T22:54:12.336Z,101807.59
2022-12-27T22:56:42.791Z,101796.66
2022-12-27T22:59:11.674Z,101783.97
2022-12-27T23:01:42.169Z,101778.66
2022-12-27T23:04:11.427Z,101785.63
2022-12-27T23:06:40.095Z,101775.19
2022-12-27T23:09:10.128Z,101774.78
2022-12-27T23:11:41.156Z,101762.84
2022-12-27T23:14:16.016Z,101744.88
2022-12-27T23:16:48.534Z,101745.53
2022-12-27T23:19:21.293Z,101726.19
2022-12-27T23:21:49.161Z,101736.63
2022-12-27T23:24:16.069Z,101738.34
2022-12-27T23:26:45.632Z,101740.75
2022-12-27T23:29:16.499Z,101741.66
2022-12-27T23:31:54.438Z,101730.13
2022-12-27T23:34:27.573Z,101728.84
2022-12-27T23:36:55.178Z,101716.25
2022-12-27T23:39:21.775Z,101707.06
2022-12-27T23:41:48.277Z,101699.88
2022-12-27T23:44:14.838Z,101680.25
2022-12-27T23:46:41.539Z,101682.75
2022-12-27T23:49:08.424Z,101692.41
2022-12-27T23:51:37.336Z,101666.81
2022-12-27T23:54:03.970Z,101682.25
2022-12-27T23:56:33.866Z,101683.97
2022-12-27T23:59:01.610Z,101670.72
